sensor_id;sensor_type;location;lat;lon;timestamp;P1;durP1;ratioP1;P2;durP2;ratioP2
27223;SDS011;14965;50.660;13.226;2022-10-28T00:02:12;9.60;;;3.13;;
27223;SDS011;14965;50.660;13.226;2022-10-28T00:04:38;7.95;;;3.15;;
27223;SDS011;14965;50.660;13.226;2022-10-28T00:07:04;12.23;;;3.25;;
27223;SDS011;14965;50.660;13.226;2022-10-28T00:09:30;8.60;;;2.88;;
27223;SDS011;14965;50.660;13.226;2022-10-28T00:11:56;6.70;;;2.90;;
27223;SDS011;14965;50.660;13.226;2022-10-28T00:14:22;10.55;;;3.20;;
27223;SDS011;14965;50.660;13.226;2022-10-28T00:16:50;11.40;;;3.20;;
27223;SDS011;14965;50.660;13.226;2022-10-28T00:19:16;11.32;;;3.17;;
27223;SDS011;14965;50.660;13.226;2022-10-28T00:21:42;10.30;;;3.17;;
27223;SDS011;14965;50.660;13.226;2022-10-28T00:24:11;11.38;;;3.45;;
27223;SDS011;14965;50.660;13.226;2022-10-28T00:26:38;8.85;;;3.08;;
27223;SDS011;14965;50.660;13.226;2022-10-28T00:29:08;8.65;;;3.17;;
27223;SDS011;14965;50.660;13.226;2022-10-28T00:34:04;12.10;;;3.28;;
27223;SDS011;14965;50.660;13.226;2022-10-28T00:36:34;8.80;;;2.65;;
27223;SDS011;14965;50.660;13.226;2022-10-28T00:39:10;10.80;;;3.42;;
27223;SDS011;14965;50.660;13.226;2022-10-28T00:41:43;14.18;;;3.20;;
27223;SDS011;14965;50.660;13.226;2022-10-28T00:47:21;7.68;;;2.97;;
27223;SDS011;14965;50.660;13.226;2022-10-28T00:50:04;8.13;;;2.97;;
27223;SDS011;14965;50.660;13.226;2022-10-28T00:52:52;10.38;;;3.03;;
27223;SDS011;14965;50.660;13.226;2022-10-28T00:55:24;9.77;;;2.85;;
27223;SDS011;14965;50.660;13.226;2022-10-28T00:57:51;9.27;;;3.30;;
27223;SDS011;14965;50.660;13.226;2022-10-28T01:00:19;10.43;;;2.95;;
27223;SDS011;14965;50.660;13.226;2022-10-28T01:02:46;7.85;;;3.17;;
27223;SDS011;14965;50.660;13.226;2022-10-28T01:05:16;9.13;;;2.55;;
27223;SDS011;14965;50.660;13.226;2022-10-28T01:07:46;6.05;;;2.70;;
27223;SDS011;14965;50.660;13.226;2022-10-28T01:10:14;8.45;;;2.80;;
27223;SDS011;14965;50.660;13.226;2022-10-28T01:12:44;6.70;;;3.15;;
27223;SDS011;14965;50.660;13.226;2022-10-28T01:15:27;8.18;;;2.90;;
27223;SDS011;14965;50.660;13.226;2022-10-28T01:18:03;10.27;;;2.65;;
27223;SDS011;14965;50.660;13.226;2022-10-28T01:21:02;7.65;;;2.63;;
27223;SDS011;14965;50.660;13.226;2022-10-28T01:24:11;9.00;;;3.00;;
27223;SDS011;14965;50.660;13.226;2022-10-28T01:26:59;8.52;;;3.10;;
27223;SDS011;14965;50.660;13.226;2022-10-28T01:30:08;10.15;;;3.03;;
27223;SDS011;14965;50.660;13.226;2022-10-28T01:32:42;10.55;;;3.00;;
27223;SDS011;14965;50.660;13.226;2022-10-28T01:35:21;13.43;;;3.08;;
27223;SDS011;14965;50.660;13.226;2022-10-28T01:37:59;11.27;;;3.08;;
27223;SDS011;14965;50.660;13.226;2022-10-28T01:40:42;12.25;;;3.40;;
27223;SDS011;14965;50.660;13.226;2022-10-28T01:43:19;12.00;;;3.25;;
27223;SDS011;14965;50.660;13.226;2022-10-28T01:45:55;7.60;;;3.05;;
27223;SDS011;14965;50.660;13.226;2022-10-28T01:48:29;14.80;;;3.55;;
27223;SDS011;14965;50.660;13.226;2022-10-28T01:51:05;7.10;;;3.08;;
27223;SDS011;14965;50.660;13.226;2022-10-28T01:53:38;8.70;;;2.95;;
27223;SDS011;14965;50.660;13.226;2022-10-28T01:56:09;11.38;;;3.00;;
27223;SDS011;14965;50.660;13.226;2022-10-28T01:58:41;12.43;;;3.13;;
27223;SDS011;14965;50.660;13.226;2022-10-28T02:01:10;9.77;;;3.13;;
27223;SDS011;14965;50.660;13.226;2022-10-28T02:03:39;7.88;;;2.60;;
27223;SDS011;14965;50.660;13.226;2022-10-28T02:06:05;9.95;;;2.80;;
27223;SDS011;14965;50.660;13.226;2022-10-28T02:08:45;8.20;;;2.78;;
27223;SDS011;14965;50.660;13.226;2022-10-28T02:11:30;11.73;;;2.80;;
27223;SDS011;14965;50.660;13.226;2022-10-28T02:14:13;8.60;;;2.70;;
27223;SDS011;14965;50.660;13.226;2022-10-28T02:16:59;8.82;;;2.40;;
27223;SDS011;14965;50.660;13.226;2022-10-28T02:19:41;9.70;;;2.80;;
27223;SDS011;14965;50.660;13.226;2022-10-28T02:22:17;7.40;;;2.50;;
27223;SDS011;14965;50.660;13.226;2022-10-28T02:24:54;7.00;;;2.80;;
27223;SDS011;14965;50.660;13.226;2022-10-28T02:27:31;9.52;;;2.67;;
27223;SDS011;14965;50.660;13.226;2022-10-28T02:30:05;9.30;;;2.60;;
27223;SDS011;14965;50.660;13.226;2022-10-28T02:32:38;9.38;;;2.83;;
27223;SDS011;14965;50.660;13.226;2022-10-28T02:35:12;11.93;;;2.90;;
27223;SDS011;14965;50.660;13.226;2022-10-28T02:37:45;7.18;;;2.70;;
27223;SDS011;14965;50.660;13.226;2022-10-28T02:40:18;8.52;;;2.75;;
27223;SDS011;14965;50.660;13.226;2022-10-28T02:42:51;9.82;;;3.00;;
27223;SDS011;14965;50.660;13.226;2022-10-28T02:45:23;9.15;;;2.97;;
27223;SDS011;14965;50.660;13.226;2022-10-28T02:47:56;8.00;;;2.80;;
27223;SDS011;14965;50.660;13.226;2022-10-28T02:50:30;9.13;;;2.47;;
27223;SDS011;14965;50.660;13.226;2022-10-28T02:53:00;8.68;;;2.78;;
27223;SDS011;14965;50.660;13.226;2022-10-28T02:55:37;7.72;;;3.20;;
27223;SDS011;14965;50.660;13.226;2022-10-28T02:58:09;9.32;;;2.50;;
27223;SDS011;14965;50.660;13.226;2022-10-28T03:00:36;11.35;;;3.10;;
27223;SDS011;14965;50.660;13.226;2022-10-28T03:03:02;9.27;;;2.78;;
27223;SDS011;14965;50.660;13.226;2022-10-28T03:05:30;6.90;;;2.50;;
27223;SDS011;14965;50.660;13.226;2022-10-28T03:07:56;10.25;;;2.80;;
27223;SDS011;14965;50.660;13.226;2022-10-28T03:10:22;8.68;;;3.40;;
27223;SDS011;14965;50.660;13.226;2022-10-28T03:12:48;9.95;;;2.92;;
27223;SDS011;14965;50.660;13.226;2022-10-28T03:15:14;8.55;;;2.90;;
27223;SDS011;14965;50.660;13.226;2022-10-28T03:17:40;9.95;;;3.03;;
27223;SDS011;14965;50.660;13.226;2022-10-28T03:20:06;11.05;;;2.95;;
27223;SDS011;14965;50.660;13.226;2022-10-28T03:22:35;10.35;;;3.20;;
27223;SDS011;14965;50.660;13.226;2022-10-28T03:25:01;11.77;;;3.67;;
27223;SDS011;14965;50.660;13.226;2022-10-28T03:27:28;11.38;;;3.65;;
27223;SDS011;14965;50.660;13.226;2022-10-28T03:29:54;10.00;;;2.70;;
27223;SDS011;14965;50.660;13.226;2022-10-28T03:32:21;8.70;;;2.42;;
27223;SDS011;14965;50.660;13.226;2022-10-28T03:34:46;12.30;;;2.88;;
27223;SDS011;14965;50.660;13.226;2022-10-28T03:37:12;11.38;;;2.75;;
27223;SDS011;14965;50.660;13.226;2022-10-28T03:39:40;9.90;;;2.60;;
27223;SDS011;14965;50.660;13.226;2022-10-28T03:42:06;8.88;;;2.70;;
27223;SDS011;14965;50.660;13.226;2022-10-28T03:44:32;8.43;;;3.15;;
27223;SDS011;14965;50.660;13.226;2022-10-28T03:46:58;7.18;;;2.90;;
27223;SDS011;14965;50.660;13.226;2022-10-28T03:49:24;9.65;;;2.70;;
27223;SDS011;14965;50.660;13.226;2022-10-28T03:51:50;11.48;;;3.17;;
27223;SDS011;14965;50.660;13.226;2022-10-28T03:54:16;8.65;;;2.50;;
27223;SDS011;14965;50.660;13.226;2022-10-28T03:56:43;12.07;;;2.78;;
27223;SDS011;14965;50.660;13.226;2022-10-28T03:59:09;8.88;;;2.58;;
27223;SDS011;14965;50.660;13.226;2022-10-28T04:01:35;7.22;;;3.10;;
27223;SDS011;14965;50.660;13.226;2022-10-28T04:04:01;10.82;;;2.95;;
27223;SDS011;14965;50.660;13.226;2022-10-28T04:06:27;7.57;;;2.97;;
27223;SDS011;14965;50.660;13.226;2022-10-28T04:08:53;8.30;;;2.67;;
27223;SDS011;14965;50.660;13.226;2022-10-28T04:11:19;8.60;;;2.88;;
27223;SDS011;14965;50.660;13.226;2022-10-28T04:13:46;9.65;;;2.70;;
27223;SDS011;14965;50.660;13.226;2022-10-28T04:16:12;9.20;;;2.60;;
27223;SDS011;14965;50.660;13.226;2022-10-28T04:18:38;15.45;;;3.10;;
27223;SDS011;14965;50.660;13.226;2022-10-28T04:21:04;11.95;;;2.83;;
27223;SDS011;14965;50.660;13.226;2022-10-28T04:23:30;8.65;;;2.67;;
27223;SDS011;14965;50.660;13.226;2022-10-28T04:25:56;7.97;;;2.90;;
27223;SDS011;14965;50.660;13.226;2022-10-28T04:28:22;10.80;;;3.65;;
27223;SDS011;14965;50.660;13.226;2022-10-28T04:30:49;8.23;;;2.70;;
27223;SDS011;14965;50.660;13.226;2022-10-28T04:33:15;15.75;;;2.90;;
27223;SDS011;14965;50.660;13.226;2022-10-28T04:35:41;8.52;;;2.90;;
27223;SDS011;14965;50.660;13.226;2022-10-28T04:38:08;12.38;;;3.20;;
27223;SDS011;14965;50.660;13.226;2022-10-28T04:40:34;7.88;;;2.58;;
27223;SDS011;14965;50.660;13.226;2022-10-28T04:43:00;9.68;;;3.00;;
27223;SDS011;14965;50.660;13.226;2022-10-28T04:45:26;12.48;;;3.17;;
27223;SDS011;14965;50.660;13.226;2022-10-28T04:47:56;13.52;;;3.30;;
27223;SDS011;14965;50.660;13.226;2022-10-28T04:50:22;7.47;;;2.65;;
27223;SDS011;14965;50.660;13.226;2022-10-28T04:52:49;13.02;;;3.13;;
27223;SDS011;14965;50.660;13.226;2022-10-28T04:55:15;17.10;;;3.30;;
27223;SDS011;14965;50.660;13.226;2022-10-28T04:57:41;12.75;;;3.50;;
27223;SDS011;14965;50.660;13.226;2022-10-28T05:00:08;12.00;;;2.88;;
27223;SDS011;14965;50.660;13.226;2022-10-28T05:02:35;12.23;;;3.10;;
27223;SDS011;14965;50.660;13.226;2022-10-28T05:05:03;6.97;;;2.80;;
27223;SDS011;14965;50.660;13.226;2022-10-28T05:07:30;8.20;;;3.15;;
27223;SDS011;14965;50.660;13.226;2022-10-28T05:09:56;10.43;;;3.55;;
27223;SDS011;14965;50.660;13.226;2022-10-28T05:12:22;10.85;;;3.42;;
27223;SDS011;14965;50.660;13.226;2022-10-28T05:14:48;10.95;;;3.20;;
27223;SDS011;14965;50.660;13.226;2022-10-28T05:17:14;8.70;;;3.00;;
27223;SDS011;14965;50.660;13.226;2022-10-28T05:19:40;11.23;;;3.47;;
27223;SDS011;14965;50.660;13.226;2022-10-28T05:22:07;11.80;;;4.07;;
27223;SDS011;14965;50.660;13.226;2022-10-28T05:24:33;8.68;;;3.45;;
27223;SDS011;14965;50.660;13.226;2022-10-28T05:26:59;10.38;;;3.22;;
27223;SDS011;14965;50.660;13.226;2022-10-28T05:29:25;8.65;;;3.65;;
27223;SDS011;14965;50.660;13.226;2022-10-28T05:31:51;10.43;;;3.90;;
27223;SDS011;14965;50.660;13.226;2022-10-28T05:34:18;11.27;;;3.90;;
27223;SDS011;14965;50.660;13.226;2022-10-28T05:36:43;15.23;;;3.88;;
27223;SDS011;14965;50.660;13.226;2022-10-28T05:39:11;8.75;;;3.40;;
27223;SDS011;14965;50.660;13.226;2022-10-28T05:41:37;13.52;;;3.72;;
27223;SDS011;14965;50.660;13.226;2022-10-28T05:44:03;13.07;;;3.92;;
27223;SDS011;14965;50.660;13.226;2022-10-28T05:46:29;16.80;;;5.30;;
27223;SDS011;14965;50.660;13.226;2022-10-28T05:48:55;22.00;;;7.30;;
27223;SDS011;14965;50.660;13.226;2022-10-28T05:51:21;56.15;;;17.02;;
27223;SDS011;14965;50.660;13.226;2022-10-28T05:53:47;43.70;;;16.05;;
27223;SDS011;14965;50.660;13.226;2022-10-28T05:56:14;44.58;;;16.60;;
27223;SDS011;14965;50.660;13.226;2022-10-28T05:58:40;32.17;;;15.18;;
27223;SDS011;14965;50.660;13.226;2022-10-28T06:01:06;22.38;;;9.48;;
27223;SDS011;14965;50.660;13.226;2022-10-28T06:03:33;19.70;;;6.72;;
27223;SDS011;14965;50.660;13.226;2022-10-28T06:05:59;12.70;;;4.80;;
27223;SDS011;14965;50.660;13.226;2022-10-28T06:08:25;12.27;;;4.07;;
27223;SDS011;14965;50.660;13.226;2022-10-28T06:10:52;10.75;;;3.60;;
27223;SDS011;14965;50.660;13.226;2022-10-28T06:13:20;10.05;;;4.05;;
27223;SDS011;14965;50.660;13.226;2022-10-28T06:15:49;9.00;;;3.97;;
27223;SDS011;14965;50.660;13.226;2022-10-28T06:18:16;13.10;;;4.50;;
27223;SDS011;14965;50.660;13.226;2022-10-28T06:20:41;15.05;;;6.13;;
27223;SDS011;14965;50.660;13.226;2022-10-28T06:23:07;17.65;;;8.15;;
27223;SDS011;14965;50.660;13.226;2022-10-28T06:25:33;14.15;;;6.40;;
27223;SDS011;14965;50.660;13.226;2022-10-28T06:27:59;8.50;;;4.50;;
27223;SDS011;14965;50.660;13.226;2022-10-28T06:30:27;10.73;;;4.32;;
27223;SDS011;14965;50.660;13.226;2022-10-28T06:32:54;11.48;;;4.15;;
27223;SDS011;14965;50.660;13.226;2022-10-28T06:35:21;8.65;;;3.58;;
27223;SDS011;14965;50.660;13.226;2022-10-28T06:37:47;8.95;;;3.40;;
27223;SDS011;14965;50.660;13.226;2022-10-28T06:40:13;11.52;;;3.40;;
27223;SDS011;14965;50.660;13.226;2022-10-28T06:42:39;13.02;;;3.80;;
27223;SDS011;14965;50.660;13.226;2022-10-28T06:45:05;11.30;;;3.75;;
27223;SDS011;14965;50.660;13.226;2022-10-28T06:47:33;11.68;;;4.05;;
27223;SDS011;14965;50.660;13.226;2022-10-28T06:49:59;11.35;;;3.78;;
27223;SDS011;14965;50.660;13.226;2022-10-28T06:52:25;8.90;;;3.22;;
27223;SDS011;14965;50.660;13.226;2022-10-28T06:54:51;10.75;;;3.65;;
27223;SDS011;14965;50.660;13.226;2022-10-28T06:57:17;16.48;;;4.28;;
27223;SDS011;14965;50.660;13.226;2022-10-28T06:59:43;11.27;;;3.53;;
27223;SDS011;14965;50.660;13.226;2022-10-28T07:02:09;12.95;;;3.30;;
27223;SDS011;14965;50.660;13.226;2022-10-28T07:04:37;10.63;;;3.55;;
27223;SDS011;14965;50.660;13.226;2022-10-28T07:07:03;9.98;;;3.30;;
27223;SDS011;14965;50.660;13.226;2022-10-28T07:09:29;9.35;;;3.30;;
27223;SDS011;14965;50.660;13.226;2022-10-28T07:11:55;11.02;;;3.15;;
27223;SDS011;14965;50.660;13.226;2022-10-28T07:14:21;17.63;;;4.68;;
27223;SDS011;14965;50.660;13.226;2022-10-28T07:16:47;15.13;;;3.65;;
27223;SDS011;14965;50.660;13.226;2022-10-28T07:19:12;10.10;;;4.05;;
27223;SDS011;14965;50.660;13.226;2022-10-28T07:21:40;19.92;;;4.90;;
27223;SDS011;14965;50.660;13.226;2022-10-28T07:24:06;18.23;;;4.40;;
27223;SDS011;14965;50.660;13.226;2022-10-28T07:26:32;15.88;;;4.72;;
27223;SDS011;14965;50.660;13.226;2022-10-28T07:28:58;11.88;;;5.00;;
27223;SDS011;14965;50.660;13.226;2022-10-28T07:31:24;15.38;;;5.63;;
27223;SDS011;14965;50.660;13.226;2022-10-28T07:33:50;17.42;;;6.35;;
27223;SDS011;14965;50.660;13.226;2022-10-28T07:36:16;17.33;;;6.93;;
27223;SDS011;14965;50.660;13.226;2022-10-28T07:38:46;17.30;;;5.47;;
27223;SDS011;14965;50.660;13.226;2022-10-28T07:41:13;17.70;;;6.45;;
27223;SDS011;14965;50.660;13.226;2022-10-28T07:43:39;10.82;;;4.90;;
27223;SDS011;14965;50.660;13.226;2022-10-28T07:46:05;20.45;;;5.68;;
27223;SDS011;14965;50.660;13.226;2022-10-28T07:48:32;23.75;;;5.40;;
27223;SDS011;14965;50.660;13.226;2022-10-28T07:51:00;20.35;;;4.75;;
27223;SDS011;14965;50.660;13.226;2022-10-28T07:53:27;13.43;;;4.18;;
27223;SDS011;14965;50.660;13.226;2022-10-28T07:55:55;12.30;;;3.58;;
27223;SDS011;14965;50.660;13.226;2022-10-28T07:58:23;10.82;;;2.97;;
27223;SDS011;14965;50.660;13.226;2022-10-28T08:00:49;14.55;;;3.20;;
27223;SDS011;14965;50.660;13.226;2022-10-28T08:03:15;9.40;;;2.60;;
27223;SDS011;14965;50.660;13.226;2022-10-28T08:05:41;9.43;;;3.13;;
27223;SDS011;14965;50.660;13.226;2022-10-28T08:08:07;14.02;;;3.40;;
27223;SDS011;14965;50.660;13.226;2022-10-28T08:10:33;14.90;;;3.20;;
27223;SDS011;14965;50.660;13.226;2022-10-28T08:13:00;16.10;;;3.20;;
27223;SDS011;14965;50.660;13.226;2022-10-28T08:15:26;12.27;;;2.92;;
27223;SDS011;14965;50.660;13.226;2022-10-28T08:17:53;13.20;;;2.88;;
27223;SDS011;14965;50.660;13.226;2022-10-28T08:20:20;10.57;;;2.70;;
27223;SDS011;14965;50.660;13.226;2022-10-28T08:22:46;13.43;;;2.60;;
27223;SDS011;14965;50.660;13.226;2022-10-28T08:25:13;12.63;;;2.85;;
27223;SDS011;14965;50.660;13.226;2022-10-28T08:27:39;12.35;;;3.05;;
27223;SDS011;14965;50.660;13.226;2022-10-28T08:30:07;10.98;;;2.72;;
27223;SDS011;14965;50.660;13.226;2022-10-28T08:32:34;10.73;;;2.83;;
27223;SDS011;14965;50.660;13.226;2022-10-28T08:35:00;8.98;;;2.78;;
27223;SDS011;14965;50.660;13.226;2022-10-28T08:37:26;12.70;;;3.00;;
27223;SDS011;14965;50.660;13.226;2022-10-28T08:39:55;13.70;;;2.63;;
27223;SDS011;14965;50.660;13.226;2022-10-28T08:42:25;13.68;;;3.20;;
27223;SDS011;14965;50.660;13.226;2022-10-28T08:45:09;14.57;;;2.88;;
27223;SDS011;14965;50.660;13.226;2022-10-28T08:47:52;12.75;;;2.55;;
27223;SDS011;14965;50.660;13.226;2022-10-28T08:50:33;11.98;;;2.78;;
27223;SDS011;14965;50.660;13.226;2022-10-28T08:53:11;10.98;;;3.13;;
27223;SDS011;14965;50.660;13.226;2022-10-28T08:55:46;9.90;;;3.08;;
27223;SDS011;14965;50.660;13.226;2022-10-28T08:58:15;9.88;;;2.60;;
27223;SDS011;14965;50.660;13.226;2022-10-28T09:00:51;8.65;;;2.72;;
27223;SDS011;14965;50.660;13.226;2022-10-28T09:03:21;11.98;;;3.40;;
27223;SDS011;14965;50.660;13.226;2022-10-28T09:05:53;12.63;;;3.45;;
27223;SDS011;14965;50.660;13.226;2022-10-28T09:08:26;9.70;;;2.85;;
27223;SDS011;14965;50.660;13.226;2022-10-28T09:14:03;12.65;;;3.13;;
27223;SDS011;14965;50.660;13.226;2022-10-28T09:16:45;13.38;;;2.97;;
27223;SDS011;14965;50.660;13.226;2022-10-28T09:19:15;11.23;;;2.60;;
27223;SDS011;14965;50.660;13.226;2022-10-28T09:22:01;14.30;;;2.90;;
27223;SDS011;14965;50.660;13.226;2022-10-28T09:24:50;18.23;;;3.28;;
27223;SDS011;14965;50.660;13.226;2022-10-28T09:27:32;15.25;;;3.67;;
27223;SDS011;14965;50.660;13.226;2022-10-28T09:30:23;10.98;;;2.78;;
27223;SDS011;14965;50.660;13.226;2022-10-28T09:33:05;9.93;;;2.63;;
27223;SDS011;14965;50.660;13.226;2022-10-28T09:35:51;8.73;;;2.80;;
27223;SDS011;14965;50.660;13.226;2022-10-28T09:38:23;7.85;;;2.67;;
27223;SDS011;14965;50.660;13.226;2022-10-28T09:40:54;16.88;;;3.20;;
27223;SDS011;14965;50.660;13.226;2022-10-28T09:43:29;15.13;;;3.75;;
27223;SDS011;14965;50.660;13.226;2022-10-28T09:45:59;15.23;;;3.20;;
27223;SDS011;14965;50.660;13.226;2022-10-28T09:48:36;9.30;;;2.42;;
27223;SDS011;14965;50.660;13.226;2022-10-28T09:51:09;12.05;;;2.70;;
27223;SDS011;14965;50.660;13.226;2022-10-28T09:53:53;19.73;;;3.10;;
27223;SDS011;14965;50.660;13.226;2022-10-28T09:56:23;11.80;;;2.80;;
27223;SDS011;14965;50.660;13.226;2022-10-28T09:58:50;11.25;;;2.58;;
27223;SDS011;14965;50.660;13.226;2022-10-28T10:01:19;15.48;;;2.83;;
27223;SDS011;14965;50.660;13.226;2022-10-28T10:03:47;11.77;;;2.50;;
27223;SDS011;14965;50.660;13.226;2022-10-28T10:06:16;15.25;;;3.58;;
27223;SDS011;14965;50.660;13.226;2022-10-28T10:08:47;16.30;;;3.35;;
27223;SDS011;14965;50.660;13.226;2022-10-28T10:11:16;10.95;;;2.53;;
27223;SDS011;14965;50.660;13.226;2022-10-28T10:13:57;15.80;;;2.78;;
27223;SDS011;14965;50.660;13.226;2022-10-28T10:16:33;13.20;;;3.05;;
27223;SDS011;14965;50.660;13.226;2022-10-28T10:19:07;14.93;;;2.50;;
27223;SDS011;14965;50.660;13.226;2022-10-28T10:21:44;12.80;;;3.47;;
27223;SDS011;14965;50.660;13.226;2022-10-28T10:24:20;10.13;;;2.80;;
27223;SDS011;14965;50.660;13.226;2022-10-28T10:26:53;11.43;;;2.40;;
27223;SDS011;14965;50.660;13.226;2022-10-28T10:29:24;12.38;;;2.88;;
27223;SDS011;14965;50.660;13.226;2022-10-28T10:32:03;13.57;;;2.60;;
27223;SDS011;14965;50.660;13.226;2022-10-28T10:34:44;15.40;;;2.53;;
27223;SDS011;14965;50.660;13.226;2022-10-28T10:37:26;10.57;;;2.45;;
27223;SDS011;14965;50.660;13.226;2022-10-28T10:40:05;12.85;;;2.22;;
27223;SDS011;14965;50.660;13.226;2022-10-28T10:42:43;13.93;;;2.70;;
27223;SDS011;14965;50.660;13.226;2022-10-28T10:45:15;12.85;;;2.83;;
27223;SDS011;14965;50.660;13.226;2022-10-28T10:47:47;13.52;;;2.80;;
27223;SDS011;14965;50.660;13.226;2022-10-28T10:50:32;10.25;;;2.67;;
27223;SDS011;14965;50.660;13.226;2022-10-28T10:52:59;16.40;;;2.65;;
27223;SDS011;14965;50.660;13.226;2022-10-28T10:55:29;13.52;;;2.50;;
27223;SDS011;14965;50.660;13.226;2022-10-28T10:58:00;10.00;;;2.75;;
27223;SDS011;14965;50.660;13.226;2022-10-28T11:00:29;12.43;;;2.67;;
27223;SDS011;14965;50.660;13.226;2022-10-28T11:03:02;12.95;;;2.42;;
27223;SDS011;14965;50.660;13.226;2022-10-28T11:05:32;10.55;;;2.45;;
27223;SDS011;14965;50.660;13.226;2022-10-28T11:07:58;11.23;;;2.75;;
27223;SDS011;14965;50.660;13.226;2022-10-28T11:10:26;17.38;;;2.55;;
27223;SDS011;14965;50.660;13.226;2022-10-28T11:12:55;13.40;;;2.47;;
27223;SDS011;14965;50.660;13.226;2022-10-28T11:15:29;14.18;;;3.22;;
27223;SDS011;14965;50.660;13.226;2022-10-28T11:17:57;10.25;;;2.50;;
27223;SDS011;14965;50.660;13.226;2022-10-28T11:20:27;14.25;;;2.83;;
27223;SDS011;14965;50.660;13.226;2022-10-28T11:23:16;14.70;;;2.70;;
27223;SDS011;14965;50.660;13.226;2022-10-28T11:25:59;16.15;;;2.55;;
27223;SDS011;14965;50.660;13.226;2022-10-28T11:28:37;14.95;;;2.85;;
27223;SDS011;14965;50.660;13.226;2022-10-28T11:31:27;15.00;;;2.60;;
27223;SDS011;14965;50.660;13.226;2022-10-28T11:34:20;11.90;;;2.58;;
27223;SDS011;14965;50.660;13.226;2022-10-28T11:37:16;13.45;;;2.90;;
27223;SDS011;14965;50.660;13.226;2022-10-28T11:39:53;12.93;;;2.30;;
27223;SDS011;14965;50.660;13.226;2022-10-28T11:42:33;9.63;;;2.35;;
27223;SDS011;14965;50.660;13.226;2022-10-28T11:45:14;10.50;;;2.55;;
27223;SDS011;14965;50.660;13.226;2022-10-28T11:47:52;7.20;;;2.33;;
27223;SDS011;14965;50.660;13.226;2022-10-28T11:50:45;12.82;;;2.85;;
27223;SDS011;14965;50.660;13.226;2022-10-28T11:53:38;8.18;;;2.25;;
27223;SDS011;14965;50.660;13.226;2022-10-28T11:56:32;12.90;;;2.72;;
27223;SDS011;14965;50.660;13.226;2022-10-28T11:59:16;8.65;;;2.20;;
27223;SDS011;14965;50.660;13.226;2022-10-28T12:02:14;12.43;;;2.17;;
27223;SDS011;14965;50.660;13.226;2022-10-28T12:05:06;9.73;;;1.90;;
27223;SDS011;14965;50.660;13.226;2022-10-28T12:07:44;11.23;;;2.70;;
27223;SDS011;14965;50.660;13.226;2022-10-28T12:10:46;10.43;;;2.17;;
27223;SDS011;14965;50.660;13.226;2022-10-28T12:13:38;11.82;;;2.45;;
27223;SDS011;14965;50.660;13.226;2022-10-28T12:16:16;17.92;;;2.10;;
27223;SDS011;14965;50.660;13.226;2022-10-28T12:18:56;11.90;;;2.63;;
27223;SDS011;14965;50.660;13.226;2022-10-28T12:21:30;15.88;;;2.78;;
27223;SDS011;14965;50.660;13.226;2022-10-28T12:24:00;13.35;;;2.58;;
27223;SDS011;14965;50.660;13.226;2022-10-28T12:26:37;12.98;;;2.50;;
27223;SDS011;14965;50.660;13.226;2022-10-28T12:29:08;17.17;;;2.95;;
27223;SDS011;14965;50.660;13.226;2022-10-28T12:31:46;12.07;;;2.30;;
27223;SDS011;14965;50.660;13.226;2022-10-28T12:34:20;12.80;;;2.35;;
27223;SDS011;14965;50.660;13.226;2022-10-28T12:36:57;10.93;;;2.78;;
27223;SDS011;14965;50.660;13.226;2022-10-28T12:39:30;9.23;;;2.45;;
27223;SDS011;14965;50.660;13.226;2022-10-28T12:42:08;8.15;;;2.00;;
27223;SDS011;14965;50.660;13.226;2022-10-28T12:44:42;11.57;;;2.90;;
27223;SDS011;14965;50.660;13.226;2022-10-28T12:47:13;12.85;;;2.55;;
27223;SDS011;14965;50.660;13.226;2022-10-28T12:49:56;11.10;;;2.35;;
27223;SDS011;14965;50.660;13.226;2022-10-28T12:52:31;12.50;;;2.67;;
27223;SDS011;14965;50.660;13.226;2022-10-28T12:55:17;15.32;;;2.83;;
27223;SDS011;14965;50.660;13.226;2022-10-28T12:57:56;14.77;;;3.00;;
27223;SDS011;14965;50.660;13.226;2022-10-28T13:00:31;12.40;;;3.00;;
27223;SDS011;14965;50.660;13.226;2022-10-28T13:03:05;12.63;;;2.78;;
27223;SDS011;14965;50.660;13.226;2022-10-28T13:05:37;11.00;;;3.17;;
27223;SDS011;14965;50.660;13.226;2022-10-28T13:11:49;11.77;;;3.17;;
27223;SDS011;14965;50.660;13.226;2022-10-28T13:14:42;11.15;;;3.00;;
27223;SDS011;14965;50.660;13.226;2022-10-28T13:17:37;10.25;;;3.00;;
27223;SDS011;14965;50.660;13.226;2022-10-28T13:20:18;11.48;;;3.05;;
27223;SDS011;14965;50.660;13.226;2022-10-28T13:23:03;12.45;;;3.55;;
27223;SDS011;14965;50.660;13.226;2022-10-28T13:25:47;11.30;;;3.03;;
27223;SDS011;14965;50.660;13.226;2022-10-28T13:28:24;13.02;;;3.85;;
27223;SDS011;14965;50.660;13.226;2022-10-28T13:31:00;11.18;;;3.25;;
27223;SDS011;14965;50.660;13.226;2022-10-28T13:33:30;12.23;;;3.70;;
27223;SDS011;14965;50.660;13.226;2022-10-28T13:36:07;11.30;;;3.20;;
27223;SDS011;14965;50.660;13.226;2022-10-28T13:38:41;15.75;;;3.42;;
27223;SDS011;14965;50.660;13.226;2022-10-28T13:41:25;15.68;;;3.58;;
27223;SDS011;14965;50.660;13.226;2022-10-28T13:43:56;12.57;;;3.15;;
27223;SDS011;14965;50.660;13.226;2022-10-28T13:52:45;13.57;;;3.25;;
27223;SDS011;14965;50.660;13.226;2022-10-28T14:01:59;13.57;;;3.97;;
27223;SDS011;14965;50.660;13.226;2022-10-28T14:04:33;12.95;;;4.47;;
27223;SDS011;14965;50.660;13.226;2022-10-28T14:07:04;14.43;;;5.13;;
27223;SDS011;14965;50.660;13.226;2022-10-28T14:09:43;14.27;;;3.85;;
27223;SDS011;14965;50.660;13.226;2022-10-28T14:12:14;15.25;;;3.80;;
27223;SDS011;14965;50.660;13.226;2022-10-28T14:14:52;15.35;;;3.65;;
27223;SDS011;14965;50.660;13.226;2022-10-28T14:17:35;14.18;;;3.92;;
27223;SDS011;14965;50.660;13.226;2022-10-28T14:20:06;12.02;;;3.83;;
27223;SDS011;14965;50.660;13.226;2022-10-28T14:22:48;16.58;;;3.50;;
27223;SDS011;14965;50.660;13.226;2022-10-28T14:31:17;18.88;;;3.85;;
27223;SDS011;14965;50.660;13.226;2022-10-28T14:37:29;14.98;;;3.65;;
27223;SDS011;14965;50.660;13.226;2022-10-28T14:40:37;14.07;;;4.20;;
27223;SDS011;14965;50.660;13.226;2022-10-28T14:43:16;15.65;;;3.85;;
27223;SDS011;14965;50.660;13.226;2022-10-28T14:46:21;12.95;;;3.97;;
27223;SDS011;14965;50.660;13.226;2022-10-28T14:49:03;20.17;;;3.58;;
27223;SDS011;14965;50.660;13.226;2022-10-28T14:51:42;14.15;;;3.20;;
27223;SDS011;14965;50.660;13.226;2022-10-28T14:54:14;11.68;;;3.67;;
27223;SDS011;14965;50.660;13.226;2022-10-28T14:56:54;12.50;;;3.20;;
27223;SDS011;14965;50.660;13.226;2022-10-28T14:59:22;17.33;;;3.45;;
27223;SDS011;14965;50.660;13.226;2022-10-28T15:01:58;16.05;;;3.25;;
27223;SDS011;14965;50.660;13.226;2022-10-28T15:04:34;12.13;;;3.72;;
27223;SDS011;14965;50.660;13.226;2022-10-28T15:07:02;12.80;;;3.47;;
27223;SDS011;14965;50.660;13.226;2022-10-28T15:09:30;14.90;;;3.42;;
27223;SDS011;14965;50.660;13.226;2022-10-28T15:11:59;12.65;;;3.42;;
27223;SDS011;14965;50.660;13.226;2022-10-28T15:14:31;17.35;;;3.50;;
27223;SDS011;14965;50.660;13.226;2022-10-28T15:17:02;10.63;;;3.15;;
27223;SDS011;14965;50.660;13.226;2022-10-28T15:19:46;17.15;;;3.58;;
27223;SDS011;14965;50.660;13.226;2022-10-28T15:23:17;14.70;;;3.13;;
27223;SDS011;14965;50.660;13.226;2022-10-28T21:50:12;17.42;;;3.05;;
27223;SDS011;14965;50.660;13.226;2022-10-28T21:52:38;14.20;;;3.08;;
27223;SDS011;14965;50.660;13.226;2022-10-28T21:55:04;15.93;;;2.58;;
27223;SDS011;14965;50.660;13.226;2022-10-28T21:57:31;14.80;;;2.70;;